Time;durP1;ratioP1;P1;durP2;ratioP2;P2;SDS_P1;SDS_P2;PMS_P1;PMS_P2;Temp;Humidity;BMP_temperature;BMP_pressure;BME280_temperature;BME280_humidity;BME280_pressure;Samples;Min_cycle;Max_cycle;Signal;HPM_P1;HPM_P2
2023/11/10 00:02:18;;;;;;;8.23;3.10;;;7.70;96.90;;;;;;5021906;28;20113;-79
2023/11/10 00:04:48;;;;;;;10.30;3.10;;;7.80;97.00;;;;;;5025467;28;20045;-80
2023/11/10 00:07:14;;;;;;;11.32;3.65;;;7.80;97.10;;;;;;5026188;28;20079;-78
2023/11/10 00:09:39;;;;;;;12.13;3.15;;;7.80;97.10;;;;;;5023176;28;20037;-78
2023/11/10 00:12:06;;;;;;;10.90;3.72;;;7.80;97.00;;;;;;5020630;28;20036;-79
2023/11/10 00:14:33;;;;;;;9.57;3.08;;;7.80;97.10;;;;;;5018625;28;20033;-77
2023/11/10 00:16:58;;;;;;;8.43;2.67;;;7.80;97.10;;;;;;5018688;28;20545;-79
2023/11/10 00:19:24;;;;;;;8.20;2.90;;;7.70;97.10;;;;;;5020237;28;20112;-79
2023/11/10 00:21:50;;;;;;;8.90;2.90;;;7.80;97.20;;;;;;5022163;28;20544;-78
2023/11/10 00:24:18;;;;;;;7.22;2.92;;;7.80;97.20;;;;;;5026137;28;20045;-79
2023/11/10 00:26:44;;;;;;;7.43;2.47;;;7.80;97.10;;;;;;5016299;28;20073;-79
2023/11/10 00:29:10;;;;;;;7.35;2.70;;;7.80;97.10;;;;;;5023190;28;20401;-79
2023/11/10 00:31:36;;;;;;;9.13;2.72;;;7.80;97.10;;;;;;5018535;28;20084;-79
2023/11/10 00:34:01;;;;;;;9.05;2.60;;;7.80;97.10;;;;;;5021606;28;20034;-79
2023/11/10 00:36:27;;;;;;;7.80;2.42;;;7.80;97.10;;;;;;5019787;28;20050;-78
2023/11/10 00:38:53;;;;;;;6.15;2.55;;;7.80;97.10;;;;;;5020815;28;21037;-79
2023/11/10 00:41:22;;;;;;;8.98;2.45;;;7.80;97.00;;;;;;5020981;28;20041;-78
2023/11/10 00:43:49;;;;;;;9.73;2.47;;;7.80;97.00;;;;;;5018415;28;20038;-78
2023/11/10 00:46:15;;;;;;;7.28;2.53;;;7.80;96.90;;;;;;5017704;28;20053;-79
2023/11/10 00:48:41;;;;;;;6.35;2.45;;;7.80;96.90;;;;;;5018981;28;20029;-78
2023/11/10 00:51:06;;;;;;;6.97;2.47;;;7.80;96.80;;;;;;5020112;28;20033;-78
2023/11/10 00:53:32;;;;;;;8.07;2.83;;;7.70;96.90;;;;;;5017358;28;20045;-79
2023/11/10 00:55:57;;;;;;;7.68;2.22;;;7.70;96.90;;;;;;5019038;28;20061;-79
2023/11/10 00:58:23;;;;;;;5.85;2.25;;;7.80;96.70;;;;;;5021335;28;20434;-79
2023/11/10 01:00:49;;;;;;;5.55;2.30;;;7.70;96.70;;;;;;5020269;28;20478;-79
2023/11/10 01:03:15;;;;;;;5.80;2.33;;;7.70;96.80;;;;;;5019188;28;20124;-79
2023/11/10 01:05:44;;;;;;;5.43;1.90;;;7.70;96.70;;;;;;5017054;28;20172;-79
2023/11/10 01:08:10;;;;;;;9.27;2.45;;;7.70;96.60;;;;;;5021502;28;20157;-78
2023/11/10 01:10:36;;;;;;;5.65;2.08;;;7.70;96.70;;;;;;5013319;28;20048;-79
2023/11/10 01:13:03;;;;;;;7.05;2.28;;;7.70;96.60;;;;;;5022305;28;20116;-77
2023/11/10 01:15:29;;;;;;;7.18;1.98;;;7.80;96.60;;;;;;5014245;28;20036;-79
2023/11/10 01:17:55;;;;;;;8.63;2.38;;;7.70;96.50;;;;;;5024477;28;20132;-78
2023/11/10 01:20:20;;;;;;;6.18;1.85;;;7.70;96.50;;;;;;5019727;28;20037;-77
2023/11/10 01:22:46;;;;;;;6.55;2.00;;;7.80;96.50;;;;;;5015011;28;20076;-78
2023/11/10 01:25:13;;;;;;;7.50;2.08;;;7.80;96.30;;;;;;5020773;28;20042;-77
2023/11/10 01:27:43;;;;;;;4.90;1.85;;;7.70;96.30;;;;;;5020318;28;20056;-78
2023/11/10 01:30:12;;;;;;;4.57;1.83;;;7.60;96.10;;;;;;5017476;28;20036;-78
2023/11/10 01:32:37;;;;;;;4.75;1.80;;;7.60;96.10;;;;;;5023172;28;20386;-78
2023/11/10 01:35:04;;;;;;;5.18;2.25;;;7.60;96.00;;;;;;5035990;28;20030;-77
2023/11/10 01:37:29;;;;;;;6.07;1.92;;;7.60;95.90;;;;;;5025449;28;20478;-77
2023/11/10 01:39:55;;;;;;;7.35;1.95;;;7.60;95.90;;;;;;5022535;28;20029;-77
2023/11/10 01:42:21;;;;;;;6.75;1.90;;;7.60;95.90;;;;;;5015401;28;20033;-79
2023/11/10 01:44:48;;;;;;;5.78;1.80;;;7.60;96.00;;;;;;5021323;28;20045;-79
2023/11/10 01:47:14;;;;;;;6.50;1.92;;;7.60;96.10;;;;;;5037287;28;20117;-79
2023/11/10 01:49:39;;;;;;;6.70;2.00;;;7.70;96.10;;;;;;5021146;28;20080;-76
2023/11/10 01:52:07;;;;;;;2.85;1.63;;;7.70;96.10;;;;;;5022753;28;20052;-79
2023/11/10 01:54:34;;;;;;;5.47;2.13;;;7.70;96.10;;;;;;5022822;28;20538;-77
2023/11/10 01:57:01;;;;;;;8.15;2.35;;;7.80;96.10;;;;;;5018883;28;20033;-77
2023/11/10 01:59:27;;;;;;;5.38;1.88;;;7.70;96.00;;;;;;5021519;28;20032;-79
2023/11/10 02:01:53;;;;;;;6.43;2.10;;;7.70;96.10;;;;;;5022938;28;20054;-76
2023/11/10 02:04:19;;;;;;;6.28;2.20;;;7.70;96.10;;;;;;5016560;28;20037;-79
2023/11/10 02:06:47;;;;;;;7.72;3.05;;;7.70;96.00;;;;;;5021497;28;20095;-79
2023/11/10 02:09:12;;;;;;;6.90;2.15;;;7.60;96.10;;;;;;5026748;28;20029;-79
2023/11/10 02:11:38;;;;;;;6.72;2.05;;;7.60;96.10;;;;;;5023377;28;20038;-78
2023/11/10 02:14:11;;;;;;;4.90;1.67;;;7.60;96.10;;;;;;5020347;28;20037;-78
2023/11/10 02:16:37;;;;;;;5.72;1.92;;;7.60;96.10;;;;;;5017272;28;20034;-78
2023/11/10 02:19:04;;;;;;;7.85;1.75;;;7.50;96.20;;;;;;5015307;28;20029;-78
2023/11/10 02:21:30;;;;;;;7.75;2.30;;;7.40;96.30;;;;;;5016616;28;20116;-79
2023/11/10 02:23:57;;;;;;;6.65;2.53;;;7.40;96.30;;;;;;5021110;28;20124;-79
2023/11/10 02:26:24;;;;;;;6.07;2.63;;;7.40;96.40;;;;;;5014894;28;20041;-79
2023/11/10 02:28:50;;;;;;;9.48;2.00;;;7.30;96.50;;;;;;5018539;28;20052;-80
2023/11/10 02:31:22;;;;;;;5.60;2.10;;;7.30;96.60;;;;;;5021666;28;20038;-78
2023/11/10 02:33:47;;;;;;;4.63;2.10;;;7.40;96.70;;;;;;5019858;28;20041;-78
2023/11/10 02:36:13;;;;;;;6.88;2.10;;;7.30;96.70;;;;;;5016185;28;20037;-78
2023/11/10 02:38:40;;;;;;;6.88;2.13;;;7.30;96.70;;;;;;5022093;28;20112;-78
2023/11/10 02:41:05;;;;;;;6.03;1.90;;;7.30;96.80;;;;;;5019480;28;20038;-78
2023/11/10 02:43:35;;;;;;;7.03;2.00;;;7.30;96.80;;;;;;5013823;28;20046;-79
2023/11/10 02:46:01;;;;;;;6.28;2.42;;;7.20;96.80;;;;;;5021077;28;20056;-79
2023/11/10 02:48:27;;;;;;;5.72;2.20;;;7.20;96.90;;;;;;5014641;28;20029;-78
2023/11/10 02:50:53;;;;;;;6.38;2.00;;;7.20;97.00;;;;;;5022548;28;20083;-79
2023/11/10 02:53:19;;;;;;;4.97;2.03;;;7.30;97.10;;;;;;5017371;28;20344;-79
2023/11/10 02:55:44;;;;;;;7.57;2.05;;;7.30;97.10;;;;;;5015993;28;20037;-78
2023/11/10 02:58:10;;;;;;;8.55;2.22;;;7.40;97.10;;;;;;5023015;28;20029;-79
2023/11/10 03:00:37;;;;;;;4.63;1.92;;;7.40;97.10;;;;;;5038935;28;20085;-79
2023/11/10 03:03:03;;;;;;;10.80;2.65;;;7.40;97.10;;;;;;5040489;28;20026;-80
2023/11/10 03:05:29;;;;;;;8.43;2.50;;;7.40;97.10;;;;;;5044137;28;20087;-79
2023/11/10 03:07:55;;;;;;;6.63;2.35;;;7.40;97.10;;;;;;5023894;28;20051;-79
2023/11/10 03:10:21;;;;;;;9.02;2.70;;;7.50;97.00;;;;;;5024288;28;20037;-79
2023/11/10 03:12:46;;;;;;;8.45;2.10;;;7.40;96.90;;;;;;5024202;28;20129;-78
2023/11/10 03:15:12;;;;;;;5.72;2.17;;;7.50;96.90;;;;;;5017519;28;20038;-78
2023/11/10 03:17:38;;;;;;;9.90;2.53;;;7.40;96.80;;;;;;5020845;28;20045;-78
2023/11/10 03:20:06;;;;;;;6.13;1.80;;;7.40;96.90;;;;;;5017246;28;20044;-78
2023/11/10 03:22:32;;;;;;;8.07;2.22;;;7.40;96.90;;;;;;5018063;28;20063;-79
2023/11/10 03:24:58;;;;;;;8.52;2.40;;;7.30;96.80;;;;;;5021478;28;20045;-79
2023/11/10 03:27:24;;;;;;;6.53;2.10;;;7.30;97.00;;;;;;5024320;28;20045;-77
2023/11/10 03:29:50;;;;;;;6.15;2.08;;;7.30;97.00;;;;;;5018004;28;20129;-79
2023/11/10 03:32:18;;;;;;;7.03;2.00;;;7.20;97.00;;;;;;5022236;28;20084;-79
2023/11/10 03:34:44;;;;;;;7.57;2.40;;;7.20;97.00;;;;;;5022008;28;20124;-78
2023/11/10 03:37:11;;;;;;;8.32;2.05;;;7.10;97.10;;;;;;5021659;28;20060;-79
2023/11/10 03:39:38;;;;;;;6.50;2.40;;;7.20;97.20;;;;;;5019694;28;20034;-78
2023/11/10 03:42:03;;;;;;;7.10;2.10;;;7.10;97.20;;;;;;5015945;28;20458;-78
2023/11/10 03:44:29;;;;;;;7.53;2.10;;;7.20;97.30;;;;;;5025121;28;20025;-78
2023/11/10 03:47:01;;;;;;;5.25;2.05;;;7.20;97.30;;;;;;5024615;28;20402;-80
2023/11/10 03:49:27;;;;;;;9.82;2.60;;;7.10;97.20;;;;;;5021941;28;20036;-79
2023/11/10 03:51:53;;;;;;;8.88;2.83;;;7.20;97.30;;;;;;5024281;28;20034;-79
2023/11/10 03:54:20;;;;;;;8.18;2.10;;;7.20;97.30;;;;;;5021054;28;20033;-79
2023/11/10 03:56:46;;;;;;;8.52;2.72;;;7.20;97.40;;;;;;5017696;28;20034;-79
2023/11/10 03:59:12;;;;;;;10.18;2.50;;;7.20;97.40;;;;;;5021816;28;20021;-78
2023/11/10 04:01:39;;;;;;;7.20;2.72;;;7.30;97.50;;;;;;5021068;28;20563;-78
2023/11/10 04:04:07;;;;;;;8.63;2.55;;;7.30;97.40;;;;;;5022552;28;20036;-78
2023/11/10 04:06:34;;;;;;;6.15;2.70;;;7.30;97.40;;;;;;5022311;28;20397;-78
2023/11/10 04:09:00;;;;;;;9.02;2.17;;;7.30;97.50;;;;;;5022009;28;20393;-78
2023/11/10 04:11:26;;;;;;;8.23;2.33;;;7.40;97.40;;;;;;5017583;28;20120;-78
2023/11/10 04:13:52;;;;;;;9.68;2.88;;;7.40;97.30;;;;;;5021114;28;20036;-78
2023/11/10 04:16:20;;;;;;;7.05;2.45;;;7.50;97.30;;;;;;5019108;28;20532;-77
2023/11/10 04:18:47;;;;;;;7.28;2.30;;;7.50;97.30;;;;;;5022351;28;20100;-78
2023/11/10 04:21:14;;;;;;;11.00;2.38;;;7.50;97.10;;;;;;5028040;28;20026;-78
2023/11/10 04:23:41;;;;;;;13.38;2.38;;;7.50;97.10;;;;;;5037795;28;20041;-78
2023/11/10 04:26:07;;;;;;;8.32;2.50;;;7.50;97.00;;;;;;5038406;28;20026;-77
2023/11/10 04:28:36;;;;;;;10.05;2.90;;;7.50;97.00;;;;;;5037880;28;20384;-78
2023/11/10 04:31:02;;;;;;;9.05;2.80;;;7.50;97.10;;;;;;5047074;28;20093;-78
2023/11/10 04:33:28;;;;;;;7.15;2.22;;;7.50;97.10;;;;;;5042534;28;20060;-80
2023/11/10 04:35:54;;;;;;;10.88;2.85;;;7.50;97.10;;;;;;5046071;28;20018;-79
2023/11/10 04:38:20;;;;;;;10.30;3.20;;;7.50;97.10;;;;;;5044410;28;20219;-80
2023/11/10 04:40:46;;;;;;;8.18;2.30;;;7.60;97.10;;;;;;5040666;28;20084;-80
2023/11/10 04:43:11;;;;;;;7.95;2.85;;;7.60;97.10;;;;;;5030412;28;20034;-79
2023/11/10 04:45:37;;;;;;;9.68;2.60;;;7.60;97.10;;;;;;5043696;28;20041;-80
2023/11/10 04:48:04;;;;;;;7.75;2.75;;;7.60;97.00;;;;;;5044414;28;20041;-80
2023/11/10 04:50:30;;;;;;;8.25;3.00;;;7.60;97.00;;;;;;5045827;28;20022;-80
2023/11/10 04:52:56;;;;;;;9.95;2.63;;;7.60;97.00;;;;;;5042165;28;20422;-80
2023/11/10 04:55:22;;;;;;;8.95;2.70;;;7.60;97.00;;;;;;5043194;28;20024;-78
2023/11/10 04:57:48;;;;;;;9.05;2.83;;;7.60;97.00;;;;;;5034894;28;20038;-79
2023/11/10 05:00:14;;;;;;;13.70;2.75;;;7.60;97.00;;;;;;5016811;28;20544;-79
2023/11/10 05:02:44;;;;;;;10.73;3.28;;;7.60;96.90;;;;;;5021849;28;20096;-79
2023/11/10 05:05:12;;;;;;;14.32;3.42;;;7.60;97.00;;;;;;5018703;28;20043;-80
2023/11/10 05:07:39;;;;;;;8.13;3.20;;;7.60;96.90;;;;;;5016594;28;20478;-78
2023/11/10 05:10:05;;;;;;;9.38;3.38;;;7.60;96.90;;;;;;5015007;28;20049;-78
2023/11/10 05:12:31;;;;;;;13.70;3.95;;;7.60;96.90;;;;;;5020975;28;20503;-78
2023/11/10 05:14:57;;;;;;;6.60;3.10;;;7.60;96.80;;;;;;5025748;28;20124;-78
2023/11/10 05:17:23;;;;;;;11.57;3.50;;;7.60;96.80;;;;;;5024071;28;20034;-79
2023/11/10 05:19:49;;;;;;;13.38;3.80;;;7.50;96.90;;;;;;5019759;28;20025;-79
2023/11/10 05:22:15;;;;;;;11.85;3.50;;;7.60;96.80;;;;;;5016626;28;20092;-79
2023/11/10 05:24:44;;;;;;;12.30;3.35;;;7.50;96.80;;;;;;5018179;28;20099;-79
2023/11/10 05:27:10;;;;;;;11.80;3.08;;;7.60;96.80;;;;;;5020150;28;20547;-78
2023/11/10 05:29:35;;;;;;;12.27;3.70;;;7.60;96.80;;;;;;5023594;28;20725;-77
2023/11/10 05:32:01;;;;;;;10.38;3.53;;;7.50;96.80;;;;;;5021698;28;20120;-78
2023/11/10 05:34:27;;;;;;;13.93;3.15;;;7.50;96.80;;;;;;5017153;28;20329;-77
2023/11/10 05:36:53;;;;;;;9.63;2.83;;;7.50;96.90;;;;;;5015529;28;20025;-78
2023/11/10 05:39:19;;;;;;;9.63;3.20;;;7.50;97.00;;;;;;5013302;28;20032;-77
2023/11/10 05:41:44;;;;;;;11.57;3.75;;;7.50;96.90;;;;;;5015286;28;20179;-78
2023/11/10 05:44:11;;;;;;;9.68;2.90;;;7.50;97.00;;;;;;5019000;28;20119;-77
2023/11/10 05:46:38;;;;;;;12.35;3.45;;;7.50;97.00;;;;;;5016767;28;20049;-78
2023/11/10 05:49:07;;;;;;;12.40;3.20;;;7.50;97.00;;;;;;5019630;28;20025;-78
2023/11/10 05:51:33;;;;;;;12.30;3.55;;;7.50;97.00;;;;;;5018168;28;20375;-78
2023/11/10 05:53:58;;;;;;;12.35;3.35;;;7.50;97.10;;;;;;5021119;28;20033;-77
2023/11/10 05:56:24;;;;;;;12.80;3.30;;;7.40;97.10;;;;;;5016017;28;20045;-77
2023/11/10 05:58:51;;;;;;;9.98;3.53;;;7.50;97.10;;;;;;5017728;28;20053;-76
2023/11/10 06:01:28;;;;;;;10.98;3.38;;;7.40;97.10;;;;;;5021634;28;20072;-77
2023/11/10 06:03:54;;;;;;;11.50;3.10;;;7.40;97.10;;;;;;5016242;28;20045;-78
2023/11/10 06:06:24;;;;;;;11.65;3.00;;;7.40;97.20;;;;;;5028256;28;20049;-77
2023/11/10 06:08:51;;;;;;;9.32;3.03;;;7.40;97.30;;;;;;5020918;28;20437;-77
2023/11/10 06:11:20;;;;;;;11.15;3.00;;;7.30;97.30;;;;;;5020343;28;20095;-79
2023/11/10 06:13:46;;;;;;;10.65;3.10;;;7.30;97.30;;;;;;5019509;28;20500;-77
2023/11/10 06:16:13;;;;;;;10.88;3.65;;;7.30;97.30;;;;;;5020627;28;20467;-77
2023/11/10 06:18:39;;;;;;;13.77;4.00;;;7.30;97.40;;;;;;5015321;28;20446;-77
2023/11/10 06:21:05;;;;;;;9.98;3.45;;;7.30;97.30;;;;;;5016897;28;20103;-77
2023/11/10 06:23:30;;;;;;;13.50;3.25;;;7.30;97.30;;;;;;5021569;28;20038;-77
2023/11/10 06:25:57;;;;;;;10.68;3.40;;;7.30;97.40;;;;;;5018387;28;20467;-77
2023/11/10 06:28:22;;;;;;;14.20;3.53;;;7.30;97.50;;;;;;5018736;28;20057;-76
2023/11/10 06:30:48;;;;;;;13.60;3.50;;;7.30;97.50;;;;;;5034180;28;20049;-76
2023/11/10 06:33:14;;;;;;;14.80;4.38;;;7.20;97.60;;;;;;5013837;28;20077;-77
2023/11/10 06:35:39;;;;;;;13.73;3.38;;;7.20;97.60;;;;;;5015981;28;20132;-76
2023/11/10 06:38:05;;;;;;;11.10;3.40;;;7.20;97.70;;;;;;5009281;28;20025;-78
2023/11/10 06:40:30;;;;;;;11.30;4.10;;;7.20;97.80;;;;;;5021083;28;20083;-76
2023/11/10 06:42:56;;;;;;;13.60;3.40;;;7.20;97.90;;;;;;5019398;28;20116;-76
2023/11/10 06:45:22;;;;;;;13.82;4.00;;;7.20;97.80;;;;;;5017387;28;20406;-78
2023/11/10 06:47:47;;;;;;;8.50;3.20;;;7.20;97.90;;;;;;5019007;28;20030;-76
2023/11/10 06:50:13;;;;;;;10.07;3.67;;;7.20;97.90;;;;;;5019512;28;20517;-77
2023/11/10 06:52:39;;;;;;;9.20;3.10;;;7.20;97.90;;;;;;5021557;28;20635;-77
2023/11/10 06:55:09;;;;;;;11.18;3.22;;;7.20;97.90;;;;;;5013591;28;20049;-76
2023/11/10 06:57:36;;;;;;;12.98;3.75;;;7.10;97.90;;;;;;5014817;28;20540;-77
2023/11/10 07:00:04;;;;;;;12.38;3.40;;;7.20;98.00;;;;;;5016390;28;20057;-78
2023/11/10 07:02:29;;;;;;;14.98;4.97;;;7.20;97.90;;;;;;5013163;28;20413;-77
2023/11/10 07:04:55;;;;;;;12.90;3.70;;;7.20;97.90;;;;;;5020581;28;20466;-77
2023/11/10 07:07:21;;;;;;;14.00;3.90;;;7.20;97.90;;;;;;5020269;28;20147;-78
2023/11/10 07:09:47;;;;;;;10.90;3.83;;;7.20;97.80;;;;;;5014331;28;20118;-77
2023/11/10 07:12:14;;;;;;;12.77;3.63;;;7.30;97.80;;;;;;5018938;28;20458;-77
2023/11/10 07:14:40;;;;;;;14.63;3.50;;;7.30;97.80;;;;;;5017141;28;20017;-77
2023/11/10 07:17:06;;;;;;;12.98;4.18;;;7.30;97.80;;;;;;5021478;28;20469;-77
2023/11/10 07:19:32;;;;;;;14.60;3.22;;;7.30;97.80;;;;;;5021337;28;20611;-77
2023/11/10 07:21:57;;;;;;;11.70;3.50;;;7.30;97.80;;;;;;5024584;28;20025;-77
2023/11/10 07:24:23;;;;;;;9.38;3.60;;;7.40;97.80;;;;;;5025405;28;20124;-77
2023/11/10 07:26:48;;;;;;;10.77;3.55;;;7.40;97.80;;;;;;5021182;28;20030;-77
2023/11/10 07:29:14;;;;;;;15.45;4.55;;;7.40;97.70;;;;;;5021674;28;20467;-78
2023/11/10 07:31:40;;;;;;;11.70;3.33;;;7.40;97.80;;;;;;5022484;28;20406;-76
2023/11/10 07:34:05;;;;;;;13.00;3.83;;;7.40;97.70;;;;;;5024316;28;20119;-76
2023/11/10 07:36:31;;;;;;;12.15;3.72;;;7.50;97.70;;;;;;5021280;28;20607;-77
2023/11/10 07:38:57;;;;;;;18.65;5.07;;;7.40;97.60;;;;;;5024345;28;20103;-77
2023/11/10 07:41:22;;;;;;;16.17;3.15;;;7.50;97.60;;;;;;5024952;28;20363;-77
2023/11/10 07:43:48;;;;;;;14.40;3.70;;;7.50;97.50;;;;;;5022881;28;20030;-77
2023/11/10 07:46:15;;;;;;;12.23;3.17;;;7.50;97.50;;;;;;5047343;28;20216;-78
2023/11/10 07:48:41;;;;;;;12.68;3.42;;;7.50;97.50;;;;;;5047979;28;20093;-78
2023/11/10 07:51:07;;;;;;;10.50;3.38;;;7.60;97.50;;;;;;5039710;28;20029;-77
2023/11/10 07:53:32;;;;;;;11.57;3.25;;;7.60;97.30;;;;;;5021879;28;20037;-77
2023/11/10 07:55:58;;;;;;;14.55;3.45;;;7.60;97.20;;;;;;5019409;28;20022;-77
2023/11/10 07:58:24;;;;;;;12.80;3.72;;;7.60;97.10;;;;;;5018125;28;20447;-80
2023/11/10 08:00:50;;;;;;;13.32;3.55;;;7.60;97.00;;;;;;5022376;28;20100;-77
2023/11/10 08:03:18;;;;;;;9.25;3.55;;;7.70;97.00;;;;;;5023501;28;20041;-79
2023/11/10 08:05:44;;;;;;;13.20;4.30;;;7.70;96.90;;;;;;5031252;28;20087;-77
2023/11/10 08:08:10;;;;;;;15.95;3.38;;;7.70;96.70;;;;;;5023215;28;20452;-77
2023/11/10 08:10:36;;;;;;;11.63;3.38;;;7.80;96.80;;;;;;5017934;28;20560;-76
2023/11/10 08:13:02;;;;;;;10.60;3.20;;;7.70;96.60;;;;;;5022576;28;20041;-76
2023/11/10 08:15:28;;;;;;;11.98;3.40;;;7.80;96.70;;;;;;5020881;28;20109;-78
2023/11/10 08:17:54;;;;;;;13.27;3.40;;;7.80;96.60;;;;;;5021755;28;20036;-78
2023/11/10 08:20:20;;;;;;;10.48;3.00;;;7.80;96.50;;;;;;5021027;28;20300;-78
2023/11/10 08:22:46;;;;;;;10.13;3.45;;;7.90;96.40;;;;;;5024683;28;20037;-77
2023/11/10 08:25:11;;;;;;;10.27;3.42;;;7.90;96.20;;;;;;5023785;28;20029;-78
2023/11/10 08:27:38;;;;;;;12.32;3.67;;;7.90;96.10;;;;;;5025254;28;20037;-79
2023/11/10 08:30:09;;;;;;;11.48;3.33;;;8.00;96.00;;;;;;5023285;28;20402;-78
2023/11/10 08:32:35;;;;;;;10.75;3.22;;;8.00;95.90;;;;;;5024146;28;20041;-77
2023/11/10 08:35:01;;;;;;;10.43;3.58;;;8.00;95.90;;;;;;5023960;28;20029;-78
2023/11/10 08:37:27;;;;;;;9.75;3.13;;;8.10;95.90;;;;;;5020286;28;20464;-79
2023/11/10 08:39:52;;;;;;;9.68;2.90;;;8.10;95.80;;;;;;5019538;28;20072;-76
2023/11/10 08:42:18;;;;;;;11.98;3.15;;;8.10;95.70;;;;;;5024057;28;20040;-77
2023/11/10 08:44:46;;;;;;;10.35;3.15;;;8.00;95.60;;;;;;5037786;28;20053;-76
2023/11/10 08:47:12;;;;;;;11.10;2.95;;;8.10;95.50;;;;;;5018916;28;20455;-76
2023/11/10 08:49:37;;;;;;;8.20;3.03;;;8.10;95.40;;;;;;5022081;28;20031;-77
2023/11/10 08:52:04;;;;;;;11.23;3.10;;;8.20;95.40;;;;;;5022942;28;20038;-77
2023/11/10 08:54:30;;;;;;;11.23;3.47;;;8.20;95.30;;;;;;5030320;28;20397;-77
2023/11/10 08:56:56;;;;;;;7.43;2.90;;;8.20;95.10;;;;;;5019139;28;20045;-77
2023/11/10 08:59:21;;;;;;;7.97;2.33;;;8.30;95.10;;;;;;5018438;28;20096;-78
2023/11/10 09:01:49;;;;;;;6.90;2.20;;;8.30;94.90;;;;;;5018826;28;20072;-77
2023/11/10 09:04:16;;;;;;;5.60;2.05;;;8.30;94.70;;;;;;5020697;28;20037;-78
2023/11/10 09:06:42;;;;;;;5.10;2.10;;;8.40;94.60;;;;;;5036202;28;20037;-76
2023/11/10 09:09:11;;;;;;;5.75;2.20;;;8.40;94.50;;;;;;5022105;28;20013;-77
2023/11/10 09:11:37;;;;;;;5.13;2.00;;;8.40;94.40;;;;;;5019398;28;20030;-77
2023/11/10 09:14:03;;;;;;;7.72;2.40;;;8.40;94.40;;;;;;5023710;28;20021;-76
2023/11/10 09:16:29;;;;;;;7.35;2.08;;;8.40;94.40;;;;;;5024142;28;20481;-77
2023/11/10 09:18:54;;;;;;;6.70;2.83;;;8.40;94.50;;;;;;5026012;28;20049;-76
2023/11/10 09:21:20;;;;;;;8.48;2.55;;;8.30;94.70;;;;;;5017492;28;20482;-76
2023/11/10 09:23:46;;;;;;;8.82;2.85;;;8.30;94.70;;;;;;5036781;28;20189;-77
2023/11/10 09:26:12;;;;;;;12.18;2.75;;;8.30;94.90;;;;;;5023330;28;20399;-77
2023/11/10 09:28:38;;;;;;;8.00;2.42;;;8.30;95.00;;;;;;5021514;28;20053;-76
2023/11/10 09:31:04;;;;;;;8.68;2.55;;;8.30;95.00;;;;;;5023629;28;20497;-76
2023/11/10 09:33:29;;;;;;;8.45;2.30;;;8.30;95.10;;;;;;5025143;28;20041;-76
2023/11/10 09:35:55;;;;;;;7.78;2.30;;;8.40;95.10;;;;;;5024573;28;20288;-77
2023/11/10 09:38:20;;;;;;;9.65;2.80;;;8.40;95.10;;;;;;5019932;28;20072;-76
2023/11/10 09:40:46;;;;;;;9.32;2.60;;;8.40;94.90;;;;;;5020624;28;20036;-76
2023/11/10 09:43:13;;;;;;;8.38;2.47;;;8.40;94.90;;;;;;5022547;28;20042;-76
2023/11/10 09:45:44;;;;;;;5.57;2.15;;;8.50;94.90;;;;;;5015742;28;20041;-77
2023/11/10 09:48:10;;;;;;;8.23;2.35;;;8.50;94.80;;;;;;5017525;28;20513;-77
2023/11/10 09:50:37;;;;;;;8.85;2.60;;;8.60;94.70;;;;;;5018241;28;20022;-77
2023/11/10 09:53:03;;;;;;;9.10;2.45;;;8.60;94.70;;;;;;5020427;28;20075;-78
2023/11/10 09:55:30;;;;;;;12.80;3.42;;;8.60;94.70;;;;;;5023410;28;20084;-78
2023/11/10 09:57:57;;;;;;;10.73;3.10;;;8.60;94.60;;;;;;5019931;28;20052;-79
2023/11/10 10:00:22;;;;;;;7.97;2.53;;;8.60;94.70;;;;;;5021622;28;20490;-78
2023/11/10 10:02:51;;;;;;;11.65;3.28;;;8.60;94.80;;;;;;5015347;28;20044;-77
2023/11/10 10:05:17;;;;;;;8.70;3.38;;;8.60;94.70;;;;;;5017080;28;20125;-79
2023/11/10 10:07:45;;;;;;;10.85;2.50;;;8.60;94.70;;;;;;5016118;28;20121;-78
2023/11/10 10:10:11;;;;;;;7.53;2.70;;;8.80;94.60;;;;;;5014301;28;20347;-78
2023/11/10 10:12:38;;;;;;;12.75;2.65;;;8.70;94.40;;;;;;5020390;28;20057;-77
2023/11/10 10:15:04;;;;;;;9.35;1.95;;;8.80;94.40;;;;;;5019931;28;20040;-77
2023/11/10 10:17:38;;;;;;;9.93;2.83;;;8.80;94.20;;;;;;5035178;28;20037;-77
2023/11/10 10:20:14;;;;;;;11.18;2.95;;;8.80;94.20;;;;;;5018890;28;20528;-77
2023/11/10 10:22:47;;;;;;;9.18;2.47;;;8.80;94.00;;;;;;5019573;28;20034;-79
2023/11/10 10:25:14;;;;;;;9.95;2.30;;;9.00;94.10;;;;;;5021163;28;20479;-76
2023/11/10 10:27:40;;;;;;;10.63;2.72;;;8.90;93.90;;;;;;5020548;28;20049;-76
2023/11/10 10:30:06;;;;;;;9.50;2.70;;;8.90;93.80;;;;;;5019117;28;20502;-76
2023/11/10 10:32:35;;;;;;;10.65;2.47;;;8.90;93.80;;;;;;5021833;28;20250;-77
2023/11/10 10:35:02;;;;;;;9.85;2.58;;;9.00;93.80;;;;;;5019733;28;20030;-76
2023/11/10 10:37:31;;;;;;;10.10;2.67;;;9.00;93.70;;;;;;5019643;28;20045;-76
2023/11/10 10:40:01;;;;;;;12.07;2.83;;;8.90;93.70;;;;;;5034872;28;20140;-78
2023/11/10 10:42:34;;;;;;;10.07;2.60;;;9.10;93.90;;;;;;5019296;28;20104;-77
2023/11/10 10:45:04;;;;;;;7.88;2.67;;;9.10;93.60;;;;;;5017162;28;20045;-78
2023/11/10 10:47:33;;;;;;;12.48;3.08;;;9.10;93.70;;;;;;5019003;28;20032;-77
2023/11/10 10:50:00;;;;;;;11.68;3.33;;;9.10;93.60;;;;;;5019768;28;20367;-77
2023/11/10 10:52:27;;;;;;;12.90;2.90;;;9.20;93.80;;;;;;5022480;28;20071;-77
2023/11/10 10:54:54;;;;;;;10.00;3.08;;;9.20;93.60;;;;;;5026464;28;20045;-77
2023/11/10 10:57:22;;;;;;;10.73;2.90;;;9.30;93.50;;;;;;5021853;28;20481;-78
2023/11/10 10:59:49;;;;;;;10.15;2.70;;;9.30;93.50;;;;;;5017606;28;20034;-77
2023/11/10 11:02:17;;;;;;;11.70;4.05;;;9.20;93.50;;;;;;5018602;28;20502;-77
2023/11/10 11:04:54;;;;;;;11.57;2.90;;;9.20;93.60;;;;;;5026114;28;20025;-77
2023/11/10 11:07:46;;;;;;;8.93;2.67;;;9.20;93.60;;;;;;5019329;28;20030;-77
2023/11/10 11:10:38;;;;;;;10.00;3.33;;;9.20;93.50;;;;;;5015144;28;20029;-77
2023/11/10 11:13:20;;;;;;;10.23;2.78;;;9.30;93.70;;;;;;5022080;28;20025;-78
2023/11/10 11:16:10;;;;;;;13.40;3.50;;;9.50;93.60;;;;;;5022340;28;20044;-76
2023/11/10 11:18:50;;;;;;;11.15;2.78;;;9.50;93.30;;;;;;5018981;28;20554;-77
2023/11/10 11:21:17;;;;;;;9.75;2.33;;;9.60;92.90;;;;;;5028355;28;20091;-79
2023/11/10 11:23:43;;;;;;;12.85;2.92;;;9.60;92.80;;;;;;5019386;28;20033;-77
2023/11/10 11:26:08;;;;;;;10.50;3.15;;;9.80;92.80;;;;;;5021835;28;20026;-76
2023/11/10 11:28:36;;;;;;;9.10;2.70;;;9.90;92.30;;;;;;5020569;28;20390;-76
2023/11/10 11:31:10;;;;;;;9.25;2.95;;;10.00;91.80;;;;;;5023924;28;20100;-77
2023/11/10 11:33:49;;;;;;;10.55;3.15;;;9.90;91.70;;;;;;5024762;28;20038;-77
2023/11/10 11:36:19;;;;;;;9.60;3.15;;;9.80;91.60;;;;;;5017874;28;20038;-77
2023/11/10 11:38:50;;;;;;;14.38;3.78;;;9.80;91.90;;;;;;5024494;28;20540;-76
2023/11/10 11:41:18;;;;;;;11.82;3.22;;;9.60;92.20;;;;;;5018628;28;20057;-78
2023/11/10 11:43:49;;;;;;;12.27;3.13;;;9.60;92.30;;;;;;5019626;28;20513;-77
2023/11/10 11:46:15;;;;;;;13.18;3.58;;;9.50;92.50;;;;;;5016207;28;20022;-77
2023/11/10 11:48:40;;;;;;;9.02;3.00;;;9.60;92.60;;;;;;5024397;28;20037;-76
2023/11/10 11:51:07;;;;;;;12.00;3.15;;;9.60;92.60;;;;;;5017086;28;20034;-77
2023/11/10 11:53:37;;;;;;;10.85;3.58;;;9.60;92.70;;;;;;5026162;28;20068;-77
2023/11/10 11:56:03;;;;;;;11.85;3.40;;;9.50;92.60;;;;;;5022519;28;20037;-78
2023/11/10 11:58:28;;;;;;;10.80;3.38;;;9.50;92.80;;;;;;5016681;28;20061;-77
2023/11/10 12:00:54;;;;;;;16.23;3.05;;;9.60;92.90;;;;;;5016754;28;20116;-77
2023/11/10 12:03:20;;;;;;;14.52;3.08;;;9.60;92.80;;;;;;5024828;28;20033;-77
2023/11/10 12:05:47;;;;;;;9.45;3.22;;;9.60;92.80;;;;;;5019819;28;20048;-77
2023/11/10 12:08:13;;;;;;;11.48;3.65;;;9.50;92.70;;;;;;5021697;28;20413;-78
2023/11/10 12:10:39;;;;;;;11.88;3.13;;;9.60;92.60;;;;;;5024357;28;20099;-77
2023/11/10 12:13:08;;;;;;;12.32;3.33;;;9.60;92.50;;;;;;5015605;28;20045;-78
2023/11/10 12:15:34;;;;;;;14.18;2.78;;;9.70;92.30;;;;;;5023812;28;20445;-77
2023/11/10 12:18:01;;;;;;;10.70;2.85;;;9.60;92.10;;;;;;5014411;28;20116;-77
2023/11/10 12:20:30;;;;;;;9.15;2.83;;;9.70;92.20;;;;;;5021056;28;20820;-77
2023/11/10 12:22:56;;;;;;;9.00;2.42;;;9.70;92.10;;;;;;5023563;28;20040;-79
2023/11/10 12:25:29;;;;;;;8.57;2.55;;;9.80;91.90;;;;;;5037895;28;20113;-78
2023/11/10 12:27:55;;;;;;;8.82;2.67;;;9.80;91.70;;;;;;5036673;28;20130;-78
2023/11/10 12:30:22;;;;;;;8.15;2.30;;;9.90;91.60;;;;;;5040102;28;20105;-77
2023/11/10 12:32:48;;;;;;;9.85;2.30;;;9.90;91.30;;;;;;5020576;28;20505;-76
2023/11/10 12:35:15;;;;;;;9.02;2.60;;;9.90;91.30;;;;;;5014630;28;20144;-76
2023/11/10 12:37:40;;;;;;;8.68;3.20;;;10.00;91.30;;;;;;5016508;28;20491;-76
2023/11/10 12:40:11;;;;;;;8.55;2.60;;;10.00;91.40;;;;;;5015680;28;20068;-76
2023/11/10 12:42:39;;;;;;;6.40;2.70;;;9.90;91.40;;;;;;5025018;28;20032;-77
2023/11/10 12:45:11;;;;;;;7.55;2.22;;;9.90;91.30;;;;;;5019248;28;20033;-76
2023/11/10 12:47:39;;;;;;;6.93;2.20;;;9.80;90.70;;;;;;5017737;28;20063;-76
2023/11/10 12:50:22;;;;;;;7.05;3.15;;;9.80;91.10;;;;;;5008369;28;20042;-76
2023/11/10 12:52:54;;;;;;;5.75;2.30;;;9.80;91.20;;;;;;5018400;28;20034;-77